Time;durP1;ratioP1;P1;durP2;ratioP2;P2;SDS_P1;SDS_P2;PMS_P1;PMS_P2;Temp;Humidity;BMP_temperature;BMP_pressure;BME280_temperature;BME280_humidity;BME280_pressure;Samples;Min_cycle;Max_cycle;Signal;HPM_P1;HPM_P2
2024/01/21 00:00:47;;;;;;;23.23;16.83;;;2.70;99.90;;;2.71;61.32;102048.09;4963314;28;20054;-66
2024/01/21 00:03:15;;;;;;;25.10;16.97;;;2.70;99.90;;;2.91;60.75;102069.00;4964512;28;20053;-66
2024/01/21 00:05:45;;;;;;;26.83;18.17;;;2.80;99.90;;;2.95;61.08;102068.34;4963322;28;20135;-66
2024/01/21 00:08:14;;;;;;;22.77;16.70;;;2.90;99.90;;;3.13;60.20;102050.88;4962120;28;20047;-66
2024/01/21 00:10:42;;;;;;;23.03;16.27;;;3.00;99.90;;;3.10;60.33;102053.34;4963543;28;20050;-65
2024/01/21 00:13:10;;;;;;;26.20;17.53;;;3.00;99.90;;;3.18;59.84;102054.56;4964520;28;20075;-66
2024/01/21 00:15:39;;;;;;;23.87;15.90;;;3.10;99.90;;;3.17;59.67;102056.31;4963081;28;20055;-66
2024/01/21 00:18:07;;;;;;;23.37;14.90;;;3.10;99.90;;;3.19;59.39;102046.81;4962565;28;20103;-66
2024/01/21 00:20:36;;;;;;;24.23;17.07;;;3.10;99.90;;;3.08;59.27;102011.47;4954940;28;20047;-66
2024/01/21 00:23:06;;;;;;;21.87;14.97;;;3.10;99.90;;;3.25;59.32;102004.38;4957488;29;20047;-66
2024/01/21 00:25:34;;;;;;;20.90;15.20;;;3.20;99.90;;;3.36;59.22;102016.16;4956990;28;20044;-66
2024/01/21 00:28:03;;;;;;;19.13;14.57;;;3.30;99.90;;;3.26;58.86;102000.91;4957228;29;20106;-66
2024/01/21 00:30:31;;;;;;;23.07;15.83;;;3.20;99.90;;;3.18;59.34;101991.84;4971893;28;20059;-67
2024/01/21 00:32:59;;;;;;;20.60;14.20;;;3.20;99.90;;;3.15;58.97;101973.44;4959566;28;20051;-66
2024/01/21 00:35:28;;;;;;;23.20;14.97;;;3.10;99.90;;;3.18;59.66;101973.53;4965396;28;20496;-66
2024/01/21 00:37:56;;;;;;;23.97;15.00;;;3.10;99.90;;;2.99;59.59;101971.88;4982267;28;20051;-66
2024/01/21 00:40:27;;;;;;;22.50;15.37;;;3.00;99.90;;;3.03;59.77;101967.66;4981926;28;20556;-66
2024/01/21 00:42:58;;;;;;;21.13;15.13;;;3.00;99.90;;;2.89;60.17;101969.69;4956962;29;20445;-66
2024/01/21 00:45:27;;;;;;;19.77;13.80;;;2.90;99.90;;;3.05;60.22;101955.56;4956701;29;20541;-66
2024/01/21 00:47:56;;;;;;;19.23;14.47;;;3.00;99.90;;;2.89;59.55;101921.75;4965458;28;20457;-66
2024/01/21 00:50:24;;;;;;;20.63;14.33;;;3.00;99.90;;;3.09;59.39;101945.31;4965861;28;20047;-66
2024/01/21 00:52:53;;;;;;;18.10;13.73;;;3.10;99.90;;;3.03;59.61;101937.22;4956483;29;20486;-65
2024/01/21 00:55:21;;;;;;;22.63;13.77;;;3.00;99.90;;;2.99;59.39;101926.53;4956414;29;20059;-66
2024/01/21 00:57:51;;;;;;;17.83;13.27;;;3.00;99.90;;;2.98;59.46;101923.03;4956411;29;20122;-65
2024/01/21 01:00:25;;;;;;;18.17;13.77;;;3.00;99.90;;;2.88;59.01;101884.31;4956397;29;20088;-65
2024/01/21 01:02:54;;;;;;;18.87;13.83;;;3.10;99.90;;;3.09;59.21;101919.19;4957618;28;20474;-66
2024/01/21 01:05:23;;;;;;;18.20;13.60;;;3.00;99.90;;;3.22;59.26;101928.41;4965618;28;20051;-66
2024/01/21 01:07:51;;;;;;;18.50;13.50;;;3.20;99.90;;;3.26;58.92;101920.78;4982169;28;20133;-66
2024/01/21 01:10:20;;;;;;;17.23;13.47;;;3.20;99.90;;;3.19;58.63;101916.13;4965931;28;20106;-66
2024/01/21 01:12:50;;;;;;;15.97;12.43;;;3.20;99.90;;;3.27;58.12;101921.69;4964797;28;20060;-67
2024/01/21 01:15:18;;;;;;;22.13;12.52;;;3.20;99.90;;;3.43;58.25;101919.75;4981024;28;20046;-66
2024/01/21 01:17:47;;;;;;;16.43;12.80;;;3.30;99.90;;;3.46;58.24;101914.66;4966921;28;20043;-66
2024/01/21 01:20:16;;;;;;;18.80;13.13;;;3.40;99.90;;;3.47;57.87;101905.06;4980345;28;20114;-65
2024/01/21 01:22:44;;;;;;;17.13;12.90;;;3.40;99.90;;;3.42;57.69;101883.09;4963319;28;20138;-66
2024/01/21 01:25:13;;;;;;;17.33;13.00;;;3.40;99.90;;;3.44;57.90;101904.94;4955887;29;20107;-66
2024/01/21 01:27:41;;;;;;;16.93;12.93;;;3.30;99.90;;;3.38;57.43;101902.09;4955971;28;20105;-66
2024/01/21 01:30:12;;;;;;;20.73;13.30;;;3.30;99.90;;;3.42;57.35;101896.16;4955976;29;20049;-66
2024/01/21 01:32:41;;;;;;;17.37;12.67;;;3.40;99.90;;;3.43;57.91;101885.75;4956038;28;20059;-66
2024/01/21 01:35:10;;;;;;;18.13;13.33;;;3.40;99.90;;;3.47;57.84;101898.13;4955692;28;20051;-67
2024/01/21 01:37:38;;;;;;;18.17;12.50;;;3.40;99.90;;;3.43;57.45;101875.28;4958608;28;20050;-66
2024/01/21 01:40:08;;;;;;;17.23;12.63;;;3.40;99.90;;;3.46;57.88;101866.69;4963108;28;20109;-66
2024/01/21 01:42:36;;;;;;;17.48;13.05;;;3.30;99.90;;;3.42;57.56;101883.09;4980386;28;20054;-66
2024/01/21 01:45:06;;;;;;;19.57;12.80;;;3.40;99.90;;;3.34;58.04;101858.34;4966469;28;20043;-66
2024/01/21 01:47:35;;;;;;;18.95;11.95;;;3.30;99.90;;;3.31;57.91;101879.16;4965061;28;20108;-67
2024/01/21 01:50:05;;;;;;;18.98;12.70;;;3.30;99.90;;;3.26;57.52;101841.44;4964321;28;20098;-67
2024/01/21 01:52:33;;;;;;;19.20;12.87;;;3.30;99.90;;;3.43;57.61;101848.25;4965471;28;20420;-65
2024/01/21 01:55:02;;;;;;;20.33;12.40;;;3.30;99.90;;;3.47;57.95;101834.47;4966164;28;20078;-66
2024/01/21 01:57:31;;;;;;;18.40;13.07;;;3.40;99.90;;;3.41;58.18;101821.13;4968656;28;20039;-67
2024/01/21 02:00:00;;;;;;;18.07;12.73;;;3.30;99.90;;;3.46;57.80;101844.06;4964057;28;20397;-66
2024/01/21 02:02:28;;;;;;;14.40;11.90;;;3.40;99.90;;;3.35;57.93;101849.66;4955401;29;20126;-66
2024/01/21 02:05:00;;;;;;;18.07;12.57;;;3.30;99.90;;;3.23;58.24;101859.63;4961099;28;20054;-67
2024/01/21 02:07:28;;;;;;;15.73;11.83;;;3.20;99.90;;;3.15;58.36;101798.31;4955191;28;20159;-67
2024/01/21 02:09:57;;;;;;;18.73;11.67;;;3.20;99.90;;;3.20;58.09;101830.75;4955087;29;20406;-67
2024/01/21 02:12:25;;;;;;;15.23;12.27;;;3.10;99.90;;;3.22;58.02;101823.84;4955018;29;20417;-66
2024/01/21 02:14:53;;;;;;;14.73;11.50;;;3.20;99.90;;;3.22;58.42;101857.84;4955487;29;20054;-67
2024/01/21 02:17:22;;;;;;;17.30;12.50;;;3.20;99.90;;;3.33;58.31;101833.03;4962753;28;20055;-67
2024/01/21 02:19:50;;;;;;;17.13;12.13;;;3.20;99.90;;;3.36;58.25;101827.91;4963953;28;20079;-66
2024/01/21 02:22:21;;;;;;;18.20;12.37;;;3.30;99.90;;;3.37;57.81;101827.97;4980637;28;20477;-66
2024/01/21 02:24:51;;;;;;;20.43;12.57;;;3.30;99.90;;;1.09;57.86;101470.47;4954888;29;20054;-66
2024/01/21 02:27:20;;;;;;;22.20;12.38;;;3.20;99.90;;;3.09;58.22;101805.91;4955082;29;20082;-67
2024/01/21 02:29:48;;;;;;;18.50;12.40;;;3.10;99.90;;;3.03;58.61;101782.13;4954751;29;20043;-67
2024/01/21 02:32:16;;;;;;;16.00;12.60;;;3.00;99.90;;;3.00;59.26;101798.56;4954681;29;20108;-67
2024/01/21 02:34:45;;;;;;;22.40;12.27;;;3.00;99.90;;;3.05;59.79;101785.69;4954883;28;20054;-67
2024/01/21 02:37:13;;;;;;;22.53;12.40;;;3.00;99.90;;;2.83;59.98;101754.34;4958895;28;20078;-67
2024/01/21 02:39:42;;;;;;;17.93;12.17;;;2.80;99.90;;;2.90;60.05;101751.13;4965243;28;20381;-67
2024/01/21 02:42:11;;;;;;;19.27;12.40;;;2.80;99.90;;;2.77;60.32;101752.34;4963756;28;20087;-67
2024/01/21 02:44:40;;;;;;;16.85;13.00;;;2.80;99.90;;;2.80;60.28;101739.41;4962586;28;20053;-68
2024/01/21 02:47:08;;;;;;;18.03;11.60;;;2.70;99.90;;;2.61;60.77;101755.16;4961859;28;20055;-67
2024/01/21 02:49:37;;;;;;;18.00;13.00;;;2.60;99.90;;;2.52;60.90;101729.56;4963211;28;20054;-67
2024/01/21 02:52:06;;;;;;;16.30;12.40;;;2.60;99.90;;;2.66;61.08;101743.19;4963249;28;20059;-67
2024/01/21 02:54:34;;;;;;;16.93;12.17;;;2.60;99.90;;;2.68;61.53;101726.75;4963137;28;20043;-67
2024/01/21 02:57:03;;;;;;;18.07;12.80;;;2.60;99.90;;;2.56;61.11;101756.66;4954351;29;20053;-66
2024/01/21 02:59:33;;;;;;;16.67;11.93;;;2.60;99.90;;;2.68;61.26;101745.03;4954336;29;20051;-67
2024/01/21 03:02:01;;;;;;;21.58;12.88;;;2.60;99.90;;;2.80;61.12;101752.47;4954212;29;20051;-67
2024/01/21 03:04:29;;;;;;;16.93;12.23;;;2.80;99.90;;;2.78;60.70;101742.78;4954292;29;20106;-67
2024/01/21 03:06:58;;;;;;;19.37;12.80;;;2.80;99.90;;;2.72;60.77;101735.59;4954201;29;20062;-67
2024/01/21 03:09:26;;;;;;;18.63;12.80;;;2.70;99.90;;;2.82;60.83;101726.41;4956330;28;20039;-66
2024/01/21 03:11:56;;;;;;;19.77;13.63;;;2.80;99.90;;;2.89;60.81;101731.03;4962500;28;20039;-66
2024/01/21 03:14:24;;;;;;;17.70;12.35;;;2.80;99.90;;;2.86;60.72;101729.22;4963371;28;20105;-66
2024/01/21 03:16:54;;;;;;;18.67;12.73;;;2.80;99.90;;;2.81;60.87;101716.81;4964786;28;20105;-67
2024/01/21 03:19:22;;;;;;;17.02;12.50;;;2.90;99.90;;;2.87;60.29;101725.75;4962874;28;20043;-64
2024/01/21 03:21:51;;;;;;;17.30;12.07;;;2.90;99.90;;;3.02;60.72;101738.56;4962956;28;20501;-66
2024/01/21 03:24:19;;;;;;;18.13;13.00;;;2.90;99.90;;;3.01;60.36;101731.53;4964877;28;20047;-67
2024/01/21 03:26:47;;;;;;;14.17;11.23;;;3.00;99.90;;;3.13;59.66;101714.63;4963906;28;20050;-66
2024/01/21 03:29:16;;;;;;;17.37;12.53;;;3.10;99.90;;;3.21;59.70;101720.16;4962360;28;20051;-66
2024/01/21 03:31:44;;;;;;;16.90;12.33;;;3.10;99.90;;;3.29;59.61;101718.72;4963831;28;20448;-67
2024/01/21 03:34:14;;;;;;;18.90;12.60;;;3.20;99.90;;;3.30;59.24;101704.81;4965134;28;20058;-67
2024/01/21 03:36:43;;;;;;;17.67;12.20;;;3.20;99.90;;;3.38;59.13;101724.28;4978300;28;20102;-66
2024/01/21 03:39:11;;;;;;;17.37;12.60;;;3.30;99.90;;;3.42;58.17;101723.59;4961452;28;20051;-66
2024/01/21 03:41:40;;;;;;;16.10;11.67;;;3.30;99.90;;;3.40;58.15;101722.63;4962603;28;20085;-66
2024/01/21 03:44:08;;;;;;;17.77;11.97;;;3.40;99.90;;;3.47;58.08;101704.63;4962702;28;20043;-67
2024/01/21 03:46:36;;;;;;;18.03;12.47;;;3.40;99.90;;;3.53;58.03;101711.78;4964712;28;20078;-66
2024/01/21 03:49:05;;;;;;;19.00;12.90;;;3.50;99.90;;;3.45;58.14;101703.66;4963802;28;20054;-67
2024/01/21 03:51:35;;;;;;;35.93;14.30;;;3.40;99.90;;;3.45;57.89;101666.16;4962491;28;20047;-67
2024/01/21 03:54:03;;;;;;;17.50;13.20;;;3.40;99.90;;;3.51;57.99;101659.44;4963310;28;20064;-66
2024/01/21 03:56:32;;;;;;;19.60;12.97;;;3.40;99.90;;;3.58;58.05;101650.97;4967666;28;20129;-68
2024/01/21 03:59:00;;;;;;;18.87;12.63;;;3.50;99.90;;;3.63;57.92;101649.44;4966977;28;20054;-67
2024/01/21 04:01:28;;;;;;;19.87;12.23;;;3.50;99.90;;;3.60;57.41;101674.59;4965934;28;20062;-67
2024/01/21 04:03:57;;;;;;;16.47;13.07;;;3.50;99.90;;;3.65;57.74;101652.09;4966106;28;20560;-68
2024/01/21 04:06:25;;;;;;;19.67;12.77;;;3.50;99.90;;;3.45;57.84;101611.25;4981375;28;20047;-67
2024/01/21 04:08:55;;;;;;;16.87;12.40;;;3.50;99.90;;;3.64;57.75;101637.22;4968140;28;20504;-67
2024/01/21 04:11:23;;;;;;;18.02;12.23;;;3.50;99.90;;;3.65;58.01;101625.94;4967370;28;20528;-66
2024/01/21 04:13:52;;;;;;;20.40;12.97;;;3.60;99.90;;;3.64;57.94;101626.75;4965578;28;20564;-67
2024/01/21 04:16:20;;;;;;;19.90;12.30;;;3.50;99.90;;;3.62;57.92;101639.78;4966763;28;20046;-67
2024/01/21 04:18:48;;;;;;;17.77;12.50;;;3.50;99.90;;;3.65;58.14;101662.56;4968307;28;20054;-67
2024/01/21 04:21:17;;;;;;;18.33;12.73;;;3.50;99.90;;;3.64;58.36;101651.19;4981473;28;20505;-67
2024/01/21 04:23:45;;;;;;;16.40;13.03;;;3.50;99.90;;;3.62;58.41;101626.72;4965407;28;20082;-67
2024/01/21 04:26:16;;;;;;;18.93;14.00;;;3.50;99.90;;;3.64;58.58;101625.03;4965772;28;20493;-68
2024/01/21 04:28:44;;;;;;;17.80;13.27;;;3.50;99.90;;;3.56;59.46;101616.03;4965949;28;20397;-67
2024/01/21 04:31:13;;;;;;;19.23;13.10;;;3.50;99.90;;;3.58;59.36;101640.50;4967606;28;20515;-68
2024/01/21 04:33:41;;;;;;;17.80;13.20;;;3.50;99.90;;;3.56;59.48;101638.69;4967083;28;20101;-67
2024/01/21 04:36:16;;;;;;;16.10;13.43;;;3.50;99.90;;;3.57;59.13;101637.84;4965112;28;20049;-67
2024/01/21 04:38:45;;;;;;;18.40;12.67;;;3.50;99.90;;;3.61;59.67;101644.97;4980654;28;20051;-67
2024/01/21 04:41:15;;;;;;;17.93;13.40;;;3.50;99.90;;;3.00;59.90;101531.19;4967578;28;20055;-67
2024/01/21 04:43:45;;;;;;;21.25;12.25;;;3.50;99.90;;;3.38;59.98;101589.25;4967555;28;20061;-67
2024/01/21 04:46:13;;;;;;;17.23;12.68;;;3.50;99.90;;;3.67;59.93;101624.25;4971745;28;20047;-66
2024/01/21 04:48:41;;;;;;;16.43;12.27;;;3.50;99.90;;;3.61;60.21;101616.19;4956600;29;20051;-67
2024/01/21 04:51:10;;;;;;;15.00;12.07;;;3.50;99.90;;;3.66;60.46;101609.38;4956535;29;20116;-67
2024/01/21 04:53:39;;;;;;;18.50;13.23;;;3.50;99.90;;;3.72;60.25;101604.38;4956741;29;20481;-67
2024/01/21 04:56:08;;;;;;;17.67;12.77;;;3.60;99.90;;;3.73;60.51;101595.72;4956411;29;20075;-66
2024/01/21 04:58:37;;;;;;;17.27;12.63;;;3.60;99.90;;;3.59;60.09;101604.78;4958567;28;20401;-67
2024/01/21 05:01:06;;;;;;;18.17;13.07;;;3.50;99.90;;;3.52;60.56;101593.22;4964758;28;20047;-67
2024/01/21 05:03:34;;;;;;;18.10;12.93;;;3.40;99.90;;;3.45;60.84;101562.47;4966623;28;20061;-66
2024/01/21 05:06:04;;;;;;;17.77;13.13;;;3.40;99.90;;;3.40;60.87;101598.03;4966656;28;20065;-66
2024/01/21 05:08:32;;;;;;;19.40;13.63;;;3.30;99.90;;;3.40;60.81;101553.59;4965152;28;20047;-67
2024/01/21 05:11:01;;;;;;;16.93;12.97;;;3.30;99.90;;;3.47;61.50;101572.97;4964113;28;20166;-67
2024/01/21 05:13:29;;;;;;;20.63;13.67;;;3.40;99.90;;;3.43;61.21;101544.94;4963569;28;20054;-64
2024/01/21 05:15:59;;;;;;;16.73;12.87;;;3.30;99.90;;;3.38;61.40;101560.47;4965579;28;20059;-64
2024/01/21 05:18:27;;;;;;;20.08;12.15;;;3.30;99.90;;;3.41;61.27;101552.75;4982007;28;20066;-65
2024/01/21 05:20:56;;;;;;;16.13;12.47;;;3.30;99.90;;;3.36;61.32;101572.63;4980878;28;20055;-65
2024/01/21 05:23:24;;;;;;;18.07;13.13;;;3.30;99.90;;;3.28;61.91;101521.78;4963208;28;20051;-64
2024/01/21 05:25:54;;;;;;;17.17;13.57;;;3.30;99.90;;;3.43;61.71;101530.16;4966430;28;20105;-65
2024/01/21 05:28:23;;;;;;;;;;;3.30;99.90;;;3.23;61.86;101530.28;4982308;28;20050;-65
2024/01/21 05:30:51;;;;;;;18.30;12.67;;;3.30;99.90;;;3.47;62.09;101554.66;4965381;28;19986;-65
2024/01/21 05:33:21;;;;;;;19.53;13.60;;;3.30;99.90;;;3.51;61.89;101504.25;4963381;28;20054;-64
2024/01/21 05:35:49;;;;;;;16.67;12.25;;;3.40;99.90;;;3.49;61.98;101561.75;4955969;29;20517;-65
2024/01/21 05:38:18;;;;;;;18.63;13.03;;;3.40;99.90;;;3.52;62.51;101577.53;4955641;29;20043;-65
2024/01/21 05:40:46;;;;;;;18.00;12.73;;;3.40;99.90;;;3.51;62.71;101567.00;4970631;28;20051;-65
2024/01/21 05:43:14;;;;;;;18.03;12.33;;;3.50;99.90;;;3.46;62.55;101565.97;4955596;29;20532;-65
2024/01/21 05:45:43;;;;;;;17.97;12.53;;;3.40;99.90;;;3.44;62.35;101555.47;4959371;28;20075;-65
2024/01/21 05:48:11;;;;;;;16.07;12.30;;;3.40;99.90;;;3.45;62.62;101572.03;4965032;28;20051;-65
2024/01/21 05:50:41;;;;;;;17.40;12.53;;;3.30;99.90;;;3.47;62.29;101557.28;4963790;28;20054;-65
2024/01/21 05:53:10;;;;;;;17.77;13.75;;;3.40;99.90;;;3.45;62.42;101570.31;4965646;28;20140;-65
2024/01/21 05:55:39;;;;;;;17.70;13.50;;;3.40;99.90;;;3.47;62.17;101563.41;4966184;28;20105;-64
2024/01/21 05:58:08;;;;;;;18.00;13.23;;;3.40;99.90;;;3.50;62.49;101553.03;4964204;28;20047;-64
2024/01/21 06:00:36;;;;;;;18.53;13.63;;;3.40;99.90;;;3.55;62.73;101545.38;4963941;28;20091;-65
2024/01/21 06:03:05;;;;;;;18.47;13.23;;;3.40;99.90;;;3.49;63.31;101560.84;4955653;29;20098;-65
2024/01/21 06:05:34;;;;;;;17.07;12.67;;;3.40;99.90;;;3.53;62.77;101562.72;4961155;28;20134;-65
2024/01/21 06:08:04;;;;;;;18.43;13.83;;;3.40;99.90;;;3.53;62.75;101542.72;4955512;29;20066;-64
2024/01/21 06:10:32;;;;;;;18.63;12.85;;;3.40;99.90;;;3.50;62.44;101555.66;4955495;29;20055;-64
2024/01/21 06:13:01;;;;;;;15.43;12.67;;;3.40;99.90;;;3.56;62.80;101534.09;4955484;29;20126;-65
2024/01/21 06:15:29;;;;;;;17.77;13.60;;;3.40;99.90;;;3.51;62.96;101560.06;4954936;29;20437;-64
2024/01/21 06:17:57;;;;;;;17.20;13.50;;;3.40;99.90;;;3.59;62.79;101552.50;4964999;28;20481;-64
2024/01/21 06:20:26;;;;;;;18.63;13.77;;;3.50;99.90;;;3.53;62.58;101581.03;4964084;28;20085;-65
2024/01/21 06:22:54;;;;;;;19.43;14.20;;;3.40;99.90;;;3.61;62.96;101550.81;4963401;28;20047;-64
2024/01/21 06:25:24;;;;;;;18.07;13.17;;;3.50;99.90;;;3.59;62.82;101508.03;4954677;29;20485;-65
2024/01/21 06:27:52;;;;;;;18.63;13.50;;;3.50;99.90;;;3.56;63.57;101514.03;4955064;28;20062;-65
2024/01/21 06:30:22;;;;;;;20.17;13.40;;;3.50;99.90;;;3.69;63.33;101507.50;4978240;28;20476;-64
2024/01/21 06:32:51;;;;;;;18.67;13.38;;;3.60;99.90;;;3.71;63.73;101489.25;4964289;28;20489;-64
2024/01/21 06:35:30;;;;;;;18.30;13.13;;;3.60;99.90;;;3.53;64.05;101487.78;4964279;28;20074;-64
2024/01/21 06:37:58;;;;;;;20.03;14.27;;;3.50;99.90;;;3.52;63.92;101472.06;4961914;28;20106;-65
2024/01/21 06:40:28;;;;;;;19.03;14.23;;;3.40;99.90;;;3.46;64.37;101462.28;4963679;28;20055;-64
2024/01/21 06:42:56;;;;;;;21.50;15.32;;;3.40;99.90;;;3.28;63.99;101453.81;4965632;28;20408;-63
2024/01/21 06:45:26;;;;;;;16.57;13.93;;;3.40;99.90;;;3.44;63.90;101463.06;4963515;28;20408;-64
2024/01/21 06:47:54;;;;;;;17.63;14.40;;;3.30;99.90;;;3.36;64.27;101469.75;4963165;28;20127;-65
2024/01/21 06:50:27;;;;;;;19.37;14.03;;;3.30;99.90;;;3.41;64.53;101473.41;4954768;29;20102;-64
2024/01/21 06:52:55;;;;;;;19.17;14.15;;;3.30;99.90;;;3.39;64.68;101496.88;4960464;28;20066;-64
2024/01/21 06:55:23;;;;;;;19.57;13.33;;;3.30;99.90;;;3.34;64.13;101460.97;4954392;29;20458;-65
2024/01/21 06:57:53;;;;;;;22.03;13.67;;;3.30;99.90;;;3.37;64.20;101500.28;4954624;29;20062;-65
2024/01/21 07:00:22;;;;;;;18.38;13.90;;;3.30;99.90;;;3.42;64.95;101483.94;4965104;28;20452;-65
2024/01/21 07:02:50;;;;;;;19.27;14.97;;;3.30;99.90;;;3.45;64.54;101525.88;4964275;28;20451;-65
2024/01/21 07:05:19;;;;;;;18.70;13.43;;;3.30;99.90;;;3.51;64.67;101548.72;4961552;28;20047;-65
2024/01/21 07:07:48;;;;;;;19.63;14.10;;;3.40;99.90;;;3.56;65.02;101521.88;4962821;28;20061;-65
2024/01/21 07:10:17;;;;;;;19.13;14.30;;;3.40;99.90;;;3.60;65.04;101522.91;4965109;28;20447;-66
2024/01/21 07:12:46;;;;;;;18.97;14.40;;;3.50;99.90;;;3.63;64.80;101518.66;4963548;28;20039;-66
2024/01/21 07:15:16;;;;;;;18.53;13.50;;;3.50;99.90;;;3.71;65.18;101546.78;4977726;28;20054;-66
2024/01/21 07:17:45;;;;;;;20.63;14.57;;;3.60;99.90;;;3.70;65.59;101534.56;4964481;28;20055;-67
2024/01/21 07:20:14;;;;;;;22.13;14.40;;;3.60;99.90;;;3.69;65.82;101538.91;4979896;28;20057;-66
2024/01/21 07:22:43;;;;;;;22.00;15.17;;;3.60;99.90;;;3.77;65.91;101553.13;4962990;28;20047;-66
2024/01/21 07:25:14;;;;;;;20.90;13.70;;;3.60;99.90;;;3.78;66.13;101544.44;4962759;28;20043;-66
2024/01/21 07:27:43;;;;;;;18.97;14.70;;;3.60;99.90;;;3.75;66.04;101538.19;4978112;28;20062;-67
2024/01/21 07:30:13;;;;;;;18.73;13.97;;;3.60;99.90;;;3.80;66.44;101537.50;4965393;28;20051;-67
2024/01/21 07:32:43;;;;;;;22.20;14.65;;;3.70;99.90;;;3.77;66.54;101537.44;4968418;28;20050;-67
2024/01/21 07:35:12;;;;;;;19.27;14.15;;;3.60;99.90;;;3.81;66.32;101541.03;4967160;28;20500;-68
2024/01/21 07:37:40;;;;;;;21.57;14.90;;;3.70;99.90;;;3.85;66.33;101566.47;4957792;29;20054;-66
2024/01/21 07:40:09;;;;;;;22.83;14.20;;;3.70;99.90;;;3.85;67.27;101556.91;4957741;29;20051;-67
2024/01/21 07:42:38;;;;;;;20.00;14.37;;;3.80;99.90;;;3.91;66.94;101541.38;4957584;28;20541;-68
2024/01/21 07:45:08;;;;;;;19.63;14.23;;;3.80;99.90;;;3.95;67.51;101547.63;4957637;28;20126;-67
2024/01/21 07:47:36;;;;;;;18.65;13.93;;;3.80;99.90;;;3.95;67.68;101540.63;4957613;28;20070;-67
2024/01/21 07:50:08;;;;;;;22.63;14.23;;;3.90;99.90;;;4.01;68.61;101553.03;4959789;28;20050;-67
2024/01/21 07:52:36;;;;;;;17.43;13.73;;;3.90;99.90;;;4.02;68.43;101555.72;4966253;28;20039;-67
2024/01/21 07:55:05;;;;;;;19.57;14.03;;;3.90;99.90;;;4.02;69.13;101565.28;4967461;28;20061;-67
2024/01/21 07:57:34;;;;;;;19.70;13.67;;;3.90;99.90;;;4.03;69.81;101575.78;4968454;28;20055;-66
2024/01/21 08:00:04;;;;;;;18.20;13.60;;;3.90;99.90;;;4.08;69.83;101562.88;4966592;28;20054;-67
2024/01/21 08:02:32;;;;;;;19.00;13.77;;;3.90;99.90;;;4.07;70.61;101554.13;4966075;28;20094;-67
2024/01/21 08:05:01;;;;;;;22.00;14.63;;;3.90;99.90;;;4.13;71.28;101575.28;4967871;28;20043;-67
2024/01/21 08:07:31;;;;;;;21.60;14.87;;;4.00;99.90;;;4.19;71.42;101556.25;4966728;28;20057;-66
2024/01/21 08:09:59;;;;;;;22.60;15.05;;;4.00;99.90;;;4.11;72.34;101555.09;4957477;28;20043;-66
2024/01/21 08:12:28;;;;;;;22.53;14.97;;;4.00;99.90;;;4.16;73.31;101598.91;4956125;29;20058;-65
2024/01/21 08:14:56;;;;;;;20.60;14.73;;;4.00;99.90;;;4.18;73.60;101605.09;4957053;29;20040;-67
2024/01/21 08:17:25;;;;;;;19.47;14.67;;;4.10;99.90;;;4.17;74.44;101569.28;4957084;29;20386;-67
2024/01/21 08:19:55;;;;;;;19.00;14.05;;;4.00;99.90;;;4.27;74.65;101557.38;4957089;28;20055;-67
2024/01/21 08:22:24;;;;;;;19.23;14.67;;;4.10;99.90;;;4.27;75.13;101567.84;4959580;28;20045;-67
2024/01/21 08:24:54;;;;;;;20.10;14.10;;;4.10;99.90;;;4.20;75.71;101573.75;4965295;28;20044;-66
2024/01/21 08:27:24;;;;;;;20.23;14.32;;;4.10;99.90;;;4.34;75.89;101570.72;4966917;28;20050;-68
2024/01/21 08:29:52;;;;;;;23.93;15.17;;;4.20;99.90;;;4.35;75.87;101588.22;4968118;28;20058;-69
2024/01/21 08:32:20;;;;;;;21.33;14.83;;;4.20;99.90;;;4.38;76.36;101580.44;4966243;28;20043;-67
2024/01/21 08:34:49;;;;;;;22.53;15.40;;;4.30;99.90;;;4.55;76.38;101596.69;4963850;28;20055;-69
2024/01/21 08:37:17;;;;;;;22.27;15.33;;;4.40;99.90;;;4.46;76.65;101602.53;4965671;28;20105;-69
2024/01/21 08:39:48;;;;;;;19.95;15.60;;;4.30;99.90;;;4.57;76.86;101589.75;4964640;28;20118;-68
2024/01/21 08:42:20;;;;;;;21.52;14.63;;;4.40;99.90;;;4.45;77.58;101573.69;4964635;28;20486;-74
2024/01/21 08:44:49;;;;;;;20.17;14.77;;;4.40;99.90;;;4.56;78.20;101596.75;4965134;28;20039;-78
2024/01/21 08:47:18;;;;;;;17.90;14.63;;;4.50;99.90;;;3.87;78.26;101481.06;4970155;28;20047;-70
2024/01/21 08:49:48;;;;;;;19.20;13.98;;;4.50;99.90;;;4.58;79.00;101571.50;4965263;28;20051;-70
2024/01/21 08:52:17;;;;;;;20.88;14.85;;;4.40;99.90;;;4.55;79.17;101575.72;4965434;28;20043;-76
2024/01/21 08:54:45;;;;;;;20.77;14.87;;;4.40;99.90;;;4.70;79.88;101599.81;4965387;28;20126;-73
2024/01/21 08:57:14;;;;;;;22.17;15.40;;;4.50;99.90;;;4.71;80.04;101619.00;4967219;28;20054;-75
2024/01/21 08:59:44;;;;;;;19.13;15.20;;;4.50;99.90;;;4.73;80.43;101614.72;4966735;28;20055;-75
2024/01/21 09:02:12;;;;;;;20.30;14.98;;;4.50;99.90;;;4.73;80.69;101606.84;4965318;28;20047;-73
2024/01/21 09:04:41;;;;;;;19.95;14.82;;;4.60;99.90;;;4.70;81.37;101612.00;4965926;28;20508;-69
2024/01/21 09:07:09;;;;;;;23.27;15.70;;;4.60;99.90;;;4.75;81.63;101618.25;4966956;28;20066;-71
2024/01/21 09:09:38;;;;;;;21.03;16.13;;;4.60;99.90;;;4.73;82.22;101597.25;4965589;28;20055;-71
2024/01/21 09:12:08;;;;;;;22.50;15.43;;;4.60;99.90;;;4.72;82.77;101605.97;4964652;28;20123;-71
2024/01/21 09:14:37;;;;;;;;;;;4.60;99.90;;;4.70;83.12;101596.28;4956725;29;20051;-71
2024/01/21 09:17:07;;;;;;;23.92;15.40;;;4.50;99.90;;;4.74;83.89;101591.19;4955863;29;20339;-74
2024/01/21 09:19:35;;;;;;;21.08;15.90;;;4.60;99.90;;;4.75;84.76;101615.66;4954921;29;20144;-74
2024/01/21 09:22:05;;;;;;;19.63;15.15;;;4.60;99.90;;;4.75;85.92;101594.69;4955979;29;20098;-75
2024/01/21 09:24:33;;;;;;;19.37;14.77;;;4.60;99.90;;;4.78;85.82;101589.56;4962111;28;20050;-74
2024/01/21 09:27:02;;;;;;;21.92;15.10;;;4.60;99.90;;;4.79;86.30;101600.06;4962942;28;20043;-72
2024/01/21 09:29:31;;;;;;;20.80;15.60;;;4.60;99.90;;;4.76;86.67;101592.13;4966545;28;20496;-74
2024/01/21 09:31:59;;;;;;;19.48;15.90;;;4.60;99.90;;;4.80;87.60;101590.50;4965716;28;20451;-74
2024/01/21 09:34:29;;;;;;;22.67;15.52;;;4.60;99.90;;;4.88;88.21;101595.09;4964248;28;20047;-78
2024/01/21 09:36:58;;;;;;;20.92;15.23;;;4.70;99.90;;;4.85;88.84;101586.25;4964591;28;20057;-68
2024/01/21 09:39:26;;;;;;;18.88;14.70;;;4.70;99.90;;;4.21;89.53;101462.94;4966241;28;20145;-68
2024/01/21 09:41:55;;;;;;;22.52;15.25;;;4.70;99.90;;;4.88;90.03;101587.25;4959211;28;20074;-65
2024/01/21 09:44:28;;;;;;;22.55;16.00;;;4.70;99.90;;;4.95;90.68;101589.22;4964448;28;20046;-66
2024/01/21 09:46:58;;;;;;;22.70;15.25;;;4.80;99.90;;;5.00;91.31;101616.44;4969645;28;20051;-68
2024/01/21 09:49:31;;;;;;;;;;;4.80;99.90;;;5.00;91.69;101592.84;4954058;29;20102;-69
2024/01/21 09:52:00;;;;;;;20.90;15.07;;;4.90;99.90;;;5.03;91.76;101602.53;4954207;28;20380;-68
2024/01/21 09:54:29;;;;;;;19.83;16.00;;;4.90;99.90;;;5.09;92.32;101593.09;4954476;28;20185;-68
2024/01/21 09:56:58;;;;;;;25.75;15.50;;;4.90;99.90;;;5.08;92.82;101569.47;4954451;29;20105;-69
2024/01/21 09:59:28;;;;;;;23.38;16.02;;;5.00;99.90;;;5.08;93.77;101579.97;4958239;28;20109;-68
2024/01/21 10:01:56;;;;;;;21.10;16.25;;;4.90;99.90;;;5.10;93.92;101573.03;4975170;28;20047;-70
2024/01/21 10:04:25;;;;;;;22.20;15.93;;;4.90;99.90;;;5.18;93.94;101579.38;4965176;28;20101;-71
2024/01/21 10:06:58;;;;;;;23.42;16.65;;;5.00;99.90;;;5.19;94.54;101578.53;4963037;28;20434;-69
2024/01/21 10:09:26;;;;;;;21.83;15.75;;;5.00;99.90;;;5.22;94.14;101594.38;4963003;28;20421;-68
2024/01/21 10:11:56;;;;;;;21.05;15.13;;;5.10;99.90;;;5.24;94.53;101546.38;4965187;28;20051;-68
2024/01/21 10:14:27;;;;;;;20.00;14.93;;;5.20;99.90;;;5.40;94.70;101580.03;4965556;28;20514;-69
2024/01/21 10:16:56;;;;;;;20.88;15.15;;;5.20;99.90;;;5.40;94.81;101558.19;4954225;28;20054;-68
2024/01/21 10:19:29;;;;;;;21.38;15.30;;;5.20;99.90;;;5.49;94.55;101574.16;4954052;29;20074;-69